LFOP

Rouen Airport

Rouen/Vallée de Seine, France
TAF LFOP 210500Z 2106/2206 35012KT 9999 BKN012 BKN030 BECMG 2106/2107 SCT030 BECMG 2121/2124 VRB02KT
Issued Valid From Valid To
Jun-21 @ 05:00 UTC
(5 hours ago)
Jun-21 @ 06:00 UTC
(4 hours ago)
Jun-22 @ 06:00 UTC
(in 20 hours)
Jun-21 @ 06:00 to Jun-22 @ 06:00
TAF LFOP 210500Z 2106/2206 35012KT 9999 BKN012 BKN030
Wind Visibility Clouds
350° at 12 knots 10,000+ meters
  • Broken at 1,200' AGL
  • Broken at 3,000' AGL
Becoming Jun-21 @ 06:00 to Jun-21 @ 21:00
BECMG 2106/2107 SCT030
Wind Visibility Clouds
350° at 12 knots 10,000+ meters
  • Scattered at 3,000' AGL
Becoming Jun-21 @ 21:00 to Jun-22 @ 06:00
BECMG 2121/2124 VRB02KT
Wind Visibility Clouds
Variable at 2 knots 10,000+ meters
  • Scattered at 3,000' AGL
TAF LFOP 210500Z 2106/2206 35012KT 9999 BKN012 BKN030 BECMG 2106/2107 SCT030 BECMG 2121/2124 VRB02KT
Issued Jun-21 @ 05:00 UTC
(5 hours ago)
Valid From Jun-21 @ 06:00 UTC
(4 hours ago)
Valid To Jun-22 @ 06:00 UTC
(in 20 hours)
Jun-21 @ 06:00 - Jun-22 @ 06:00
Wind Visibility
350° at 12 knots 10,000+ meters
Clouds
  • Broken at 1,200' AGL
  • Broken at 3,000' AGL
Becoming Jun-21 @ 06:00 - Jun-21 @ 21:00
Wind Visibility
350° at 12 knots 10,000+ meters
Clouds
  • Scattered at 3,000' AGL
Becoming Jun-21 @ 21:00 - Jun-22 @ 06:00
Wind Visibility
Variable at 2 knots 10,000+ meters
Clouds
  • Scattered at 3,000' AGL